sensor_id;sensor_type;location;lat;lon;timestamp;temperature;humidity
19132;DHT22;9698;51.976;7.570;2023-12-07T00:00:30;3.90;99.90
19132;DHT22;9698;51.976;7.570;2023-12-07T00:02:59;3.80;99.90
19132;DHT22;9698;51.976;7.570;2023-12-07T00:05:27;3.80;99.90
19132;DHT22;9698;51.976;7.570;2023-12-07T00:07:55;3.90;99.90
19132;DHT22;9698;51.976;7.570;2023-12-07T00:10:23;3.90;99.90
19132;DHT22;9698;51.976;7.570;2023-12-07T00:12:51;3.80;99.90
19132;DHT22;9698;51.976;7.570;2023-12-07T00:15:19;3.70;99.90
19132;DHT22;9698;51.976;7.570;2023-12-07T00:17:46;3.90;99.90
19132;DHT22;9698;51.976;7.570;2023-12-07T00:20:14;3.80;99.90
19132;DHT22;9698;51.976;7.570;2023-12-07T00:22:42;3.90;99.90
19132;DHT22;9698;51.976;7.570;2023-12-07T00:25:10;3.80;99.90
19132;DHT22;9698;51.976;7.570;2023-12-07T00:27:38;3.90;99.90
19132;DHT22;9698;51.976;7.570;2023-12-07T00:30:08;3.70;99.90
19132;DHT22;9698;51.976;7.570;2023-12-07T00:32:36;3.80;99.90
19132;DHT22;9698;51.976;7.570;2023-12-07T00:35:06;3.80;99.90
19132;DHT22;9698;51.976;7.570;2023-12-07T00:37:35;3.70;99.90
19132;DHT22;9698;51.976;7.570;2023-12-07T00:40:04;3.60;99.90
19132;DHT22;9698;51.976;7.570;2023-12-07T00:42:32;3.80;99.90
19132;DHT22;9698;51.976;7.570;2023-12-07T00:45:01;3.60;99.90
19132;DHT22;9698;51.976;7.570;2023-12-07T00:47:29;3.70;99.90
19132;DHT22;9698;51.976;7.570;2023-12-07T00:49:57;3.50;99.90
19132;DHT22;9698;51.976;7.570;2023-12-07T00:52:26;3.80;99.90
19132;DHT22;9698;51.976;7.570;2023-12-07T00:54:55;3.50;99.90
19132;DHT22;9698;51.976;7.570;2023-12-07T00:57:37;3.50;99.90
19132;DHT22;9698;51.976;7.570;2023-12-07T01:00:07;3.50;99.90
19132;DHT22;9698;51.976;7.570;2023-12-07T01:02:35;3.60;99.90
19132;DHT22;9698;51.976;7.570;2023-12-07T01:05:04;3.60;99.90
19132;DHT22;9698;51.976;7.570;2023-12-07T01:07:32;3.50;99.90
19132;DHT22;9698;51.976;7.570;2023-12-07T01:10:00;3.50;99.90
19132;DHT22;9698;51.976;7.570;2023-12-07T01:12:28;3.50;99.90
19132;DHT22;9698;51.976;7.570;2023-12-07T01:14:56;3.50;99.90
19132;DHT22;9698;51.976;7.570;2023-12-07T01:17:24;3.50;99.90
19132;DHT22;9698;51.976;7.570;2023-12-07T01:19:51;3.50;99.90
19132;DHT22;9698;51.976;7.570;2023-12-07T01:22:19;3.40;99.90
19132;DHT22;9698;51.976;7.570;2023-12-07T01:24:47;3.30;99.90
19132;DHT22;9698;51.976;7.570;2023-12-07T01:29:43;3.50;99.90
19132;DHT22;9698;51.976;7.570;2023-12-07T01:32:11;3.70;99.90
19132;DHT22;9698;51.976;7.570;2023-12-07T01:34:39;4.00;99.90
19132;DHT22;9698;51.976;7.570;2023-12-07T01:37:07;3.60;99.90
19132;DHT22;9698;51.976;7.570;2023-12-07T01:39:35;3.60;99.90
19132;DHT22;9698;51.976;7.570;2023-12-07T01:42:03;3.30;99.90
19132;DHT22;9698;51.976;7.570;2023-12-07T01:44:31;3.50;99.90
19132;DHT22;9698;51.976;7.570;2023-12-07T01:46:59;3.50;99.90
19132;DHT22;9698;51.976;7.570;2023-12-07T01:49:27;3.60;99.90
19132;DHT22;9698;51.976;7.570;2023-12-07T01:51:56;3.70;99.90
19132;DHT22;9698;51.976;7.570;2023-12-07T01:54:25;3.60;99.90
19132;DHT22;9698;51.976;7.570;2023-12-07T01:56:53;3.60;99.90
19132;DHT22;9698;51.976;7.570;2023-12-07T01:59:20;3.80;99.90
19132;DHT22;9698;51.976;7.570;2023-12-07T02:01:48;3.60;99.90
19132;DHT22;9698;51.976;7.570;2023-12-07T02:04:17;3.50;99.90
19132;DHT22;9698;51.976;7.570;2023-12-07T02:06:45;3.50;99.90
19132;DHT22;9698;51.976;7.570;2023-12-07T02:09:13;3.60;99.90
19132;DHT22;9698;51.976;7.570;2023-12-07T02:11:41;3.50;99.90
19132;DHT22;9698;51.976;7.570;2023-12-07T02:14:08;3.60;99.90
19132;DHT22;9698;51.976;7.570;2023-12-07T02:16:42;3.60;99.90
19132;DHT22;9698;51.976;7.570;2023-12-07T02:19:20;3.70;99.90
19132;DHT22;9698;51.976;7.570;2023-12-07T02:21:58;3.70;99.90
19132;DHT22;9698;51.976;7.570;2023-12-07T02:24:28;3.60;99.90
19132;DHT22;9698;51.976;7.570;2023-12-07T02:27:00;3.60;99.90
19132;DHT22;9698;51.976;7.570;2023-12-07T02:29:28;3.50;99.90
19132;DHT22;9698;51.976;7.570;2023-12-07T02:31:56;3.70;99.90
19132;DHT22;9698;51.976;7.570;2023-12-07T02:34:24;3.70;99.90
19132;DHT22;9698;51.976;7.570;2023-12-07T02:36:54;3.40;99.90
19132;DHT22;9698;51.976;7.570;2023-12-07T02:39:24;3.60;99.90
19132;DHT22;9698;51.976;7.570;2023-12-07T02:41:52;4.20;99.90
19132;DHT22;9698;51.976;7.570;2023-12-07T02:44:21;3.70;99.90
19132;DHT22;9698;51.976;7.570;2023-12-07T02:46:49;3.70;99.90
19132;DHT22;9698;51.976;7.570;2023-12-07T02:49:17;3.70;99.90
19132;DHT22;9698;51.976;7.570;2023-12-07T02:51:45;3.70;99.90
19132;DHT22;9698;51.976;7.570;2023-12-07T02:54:13;3.60;99.90
19132;DHT22;9698;51.976;7.570;2023-12-07T02:56:40;3.70;99.90
19132;DHT22;9698;51.976;7.570;2023-12-07T02:59:08;3.70;99.90
19132;DHT22;9698;51.976;7.570;2023-12-07T03:01:36;3.60;99.90
19132;DHT22;9698;51.976;7.570;2023-12-07T03:04:04;3.70;99.90
19132;DHT22;9698;51.976;7.570;2023-12-07T03:06:32;3.70;99.90
19132;DHT22;9698;51.976;7.570;2023-12-07T03:08:59;3.70;99.90
19132;DHT22;9698;51.976;7.570;2023-12-07T03:11:27;3.60;99.90
19132;DHT22;9698;51.976;7.570;2023-12-07T03:13:55;3.70;99.90
19132;DHT22;9698;51.976;7.570;2023-12-07T03:18:53;3.60;99.90
19132;DHT22;9698;51.976;7.570;2023-12-07T03:21:21;3.60;99.90
19132;DHT22;9698;51.976;7.570;2023-12-07T03:23:48;3.30;99.90
19132;DHT22;9698;51.976;7.570;2023-12-07T03:26:17;3.50;99.90
19132;DHT22;9698;51.976;7.570;2023-12-07T03:28:44;3.50;99.90
19132;DHT22;9698;51.976;7.570;2023-12-07T03:31:12;3.60;99.90
19132;DHT22;9698;51.976;7.570;2023-12-07T03:33:41;3.60;99.90
19132;DHT22;9698;51.976;7.570;2023-12-07T03:36:12;3.70;99.90
19132;DHT22;9698;51.976;7.570;2023-12-07T03:38:40;3.50;99.90
19132;DHT22;9698;51.976;7.570;2023-12-07T03:41:07;3.50;99.90
19132;DHT22;9698;51.976;7.570;2023-12-07T03:43:35;3.60;99.90
19132;DHT22;9698;51.976;7.570;2023-12-07T03:46:05;3.70;99.90
19132;DHT22;9698;51.976;7.570;2023-12-07T03:51:04;3.30;99.90
19132;DHT22;9698;51.976;7.570;2023-12-07T03:53:33;3.60;99.90
19132;DHT22;9698;51.976;7.570;2023-12-07T03:56:01;3.50;99.90
19132;DHT22;9698;51.976;7.570;2023-12-07T03:58:28;3.50;99.90
19132;DHT22;9698;51.976;7.570;2023-12-07T04:00:56;3.60;99.90
19132;DHT22;9698;51.976;7.570;2023-12-07T04:03:24;3.50;99.90
19132;DHT22;9698;51.976;7.570;2023-12-07T04:05:52;3.50;99.90
19132;DHT22;9698;51.976;7.570;2023-12-07T04:08:20;3.40;99.90
19132;DHT22;9698;51.976;7.570;2023-12-07T04:10:48;3.40;99.90
19132;DHT22;9698;51.976;7.570;2023-12-07T04:13:16;3.50;99.90
19132;DHT22;9698;51.976;7.570;2023-12-07T04:15:45;3.50;99.90
19132;DHT22;9698;51.976;7.570;2023-12-07T04:18:13;3.50;99.90
19132;DHT22;9698;51.976;7.570;2023-12-07T04:20:41;3.30;99.90
19132;DHT22;9698;51.976;7.570;2023-12-07T04:23:08;3.50;99.90
19132;DHT22;9698;51.976;7.570;2023-12-07T04:25:36;3.30;99.90
19132;DHT22;9698;51.976;7.570;2023-12-07T04:30:32;3.30;99.90
19132;DHT22;9698;51.976;7.570;2023-12-07T04:33:00;3.30;99.90
19132;DHT22;9698;51.976;7.570;2023-12-07T04:35:29;3.30;99.90
19132;DHT22;9698;51.976;7.570;2023-12-07T04:37:57;3.30;99.90
19132;DHT22;9698;51.976;7.570;2023-12-07T04:40:25;3.30;99.90
19132;DHT22;9698;51.976;7.570;2023-12-07T04:42:53;3.40;99.90
19132;DHT22;9698;51.976;7.570;2023-12-07T04:45:21;3.20;99.90
19132;DHT22;9698;51.976;7.570;2023-12-07T04:47:49;3.30;99.90
19132;DHT22;9698;51.976;7.570;2023-12-07T04:50:17;3.10;99.90
19132;DHT22;9698;51.976;7.570;2023-12-07T04:52:44;3.20;99.90
19132;DHT22;9698;51.976;7.570;2023-12-07T04:55:12;3.20;99.90
19132;DHT22;9698;51.976;7.570;2023-12-07T04:57:40;3.10;99.90
19132;DHT22;9698;51.976;7.570;2023-12-07T05:00:10;3.10;99.90
19132;DHT22;9698;51.976;7.570;2023-12-07T05:02:38;3.00;99.90
19132;DHT22;9698;51.976;7.570;2023-12-07T05:05:07;3.10;99.90
19132;DHT22;9698;51.976;7.570;2023-12-07T05:07:36;3.10;99.90
19132;DHT22;9698;51.976;7.570;2023-12-07T05:10:05;3.00;99.90
19132;DHT22;9698;51.976;7.570;2023-12-07T05:12:33;3.10;99.90
19132;DHT22;9698;51.976;7.570;2023-12-07T05:15:01;3.10;99.90
19132;DHT22;9698;51.976;7.570;2023-12-07T05:17:30;3.10;99.90
19132;DHT22;9698;51.976;7.570;2023-12-07T05:19:58;3.10;99.90
19132;DHT22;9698;51.976;7.570;2023-12-07T05:22:25;2.90;99.90
19132;DHT22;9698;51.976;7.570;2023-12-07T05:24:55;3.00;99.90
19132;DHT22;9698;51.976;7.570;2023-12-07T05:27:23;3.10;99.90
19132;DHT22;9698;51.976;7.570;2023-12-07T05:29:51;3.00;99.90
19132;DHT22;9698;51.976;7.570;2023-12-07T05:32:19;2.90;99.90
19132;DHT22;9698;51.976;7.570;2023-12-07T05:34:47;3.00;99.90
19132;DHT22;9698;51.976;7.570;2023-12-07T05:37:14;3.00;99.90
19132;DHT22;9698;51.976;7.570;2023-12-07T05:39:42;2.90;99.90
19132;DHT22;9698;51.976;7.570;2023-12-07T05:42:10;2.90;99.90
19132;DHT22;9698;51.976;7.570;2023-12-07T05:44:38;2.90;99.90
19132;DHT22;9698;51.976;7.570;2023-12-07T05:49:35;3.00;99.90
19132;DHT22;9698;51.976;7.570;2023-12-07T05:54:30;2.90;99.90
19132;DHT22;9698;51.976;7.570;2023-12-07T05:56:58;2.90;99.90
19132;DHT22;9698;51.976;7.570;2023-12-07T05:59:27;2.90;99.90
19132;DHT22;9698;51.976;7.570;2023-12-07T06:01:54;2.90;99.90
19132;DHT22;9698;51.976;7.570;2023-12-07T06:04:22;3.00;99.90
19132;DHT22;9698;51.976;7.570;2023-12-07T06:06:50;2.90;99.90
19132;DHT22;9698;51.976;7.570;2023-12-07T06:09:18;2.80;99.90
19132;DHT22;9698;51.976;7.570;2023-12-07T06:11:46;2.80;99.90
19132;DHT22;9698;51.976;7.570;2023-12-07T06:14:14;2.70;99.90
19132;DHT22;9698;51.976;7.570;2023-12-07T06:16:42;2.90;99.90
19132;DHT22;9698;51.976;7.570;2023-12-07T06:19:09;2.80;99.90
19132;DHT22;9698;51.976;7.570;2023-12-07T06:21:37;2.70;99.90
19132;DHT22;9698;51.976;7.570;2023-12-07T06:24:06;2.90;99.90
19132;DHT22;9698;51.976;7.570;2023-12-07T06:26:34;2.90;99.90
19132;DHT22;9698;51.976;7.570;2023-12-07T06:29:02;2.80;99.90
19132;DHT22;9698;51.976;7.570;2023-12-07T06:31:29;2.70;99.90
19132;DHT22;9698;51.976;7.570;2023-12-07T06:33:57;2.70;99.90
19132;DHT22;9698;51.976;7.570;2023-12-07T06:36:27;2.70;99.90
19132;DHT22;9698;51.976;7.570;2023-12-07T06:38:55;2.60;99.90
19132;DHT22;9698;51.976;7.570;2023-12-07T06:41:23;2.60;99.90
19132;DHT22;9698;51.976;7.570;2023-12-07T06:43:50;2.50;99.90
19132;DHT22;9698;51.976;7.570;2023-12-07T06:46:19;2.60;99.90
19132;DHT22;9698;51.976;7.570;2023-12-07T06:48:46;2.60;99.90
19132;DHT22;9698;51.976;7.570;2023-12-07T06:51:14;2.60;99.90
19132;DHT22;9698;51.976;7.570;2023-12-07T06:53:42;2.50;99.90
19132;DHT22;9698;51.976;7.570;2023-12-07T06:56:10;2.60;99.90
19132;DHT22;9698;51.976;7.570;2023-12-07T06:58:38;2.60;99.90
19132;DHT22;9698;51.976;7.570;2023-12-07T07:01:06;2.30;99.90
19132;DHT22;9698;51.976;7.570;2023-12-07T07:03:34;2.50;99.90
19132;DHT22;9698;51.976;7.570;2023-12-07T07:08:30;2.50;99.90
19132;DHT22;9698;51.976;7.570;2023-12-07T07:10:58;2.40;99.90
19132;DHT22;9698;51.976;7.570;2023-12-07T07:13:26;2.40;99.90
19132;DHT22;9698;51.976;7.570;2023-12-07T07:15:53;2.50;99.90
19132;DHT22;9698;51.976;7.570;2023-12-07T07:23:19;2.60;99.90
19132;DHT22;9698;51.976;7.570;2023-12-07T07:25:46;2.60;99.90
19132;DHT22;9698;51.976;7.570;2023-12-07T07:28:14;2.80;99.90
19132;DHT22;9698;51.976;7.570;2023-12-07T07:30:42;3.60;99.90
19132;DHT22;9698;51.976;7.570;2023-12-07T07:35:37;3.10;99.90
19132;DHT22;9698;51.976;7.570;2023-12-07T07:38:05;3.00;99.90
19132;DHT22;9698;51.976;7.570;2023-12-07T07:40:33;2.90;99.90
19132;DHT22;9698;51.976;7.570;2023-12-07T07:43:00;2.80;99.90
19132;DHT22;9698;51.976;7.570;2023-12-07T07:45:28;3.10;99.90
19132;DHT22;9698;51.976;7.570;2023-12-07T07:47:56;2.90;99.90
19132;DHT22;9698;51.976;7.570;2023-12-07T07:50:24;2.80;99.90
19132;DHT22;9698;51.976;7.570;2023-12-07T07:52:52;2.90;99.90
19132;DHT22;9698;51.976;7.570;2023-12-07T07:55:19;2.90;99.90
19132;DHT22;9698;51.976;7.570;2023-12-07T07:57:47;3.00;99.90
19132;DHT22;9698;51.976;7.570;2023-12-07T08:00:16;3.00;99.90
19132;DHT22;9698;51.976;7.570;2023-12-07T08:02:46;2.90;99.90
19132;DHT22;9698;51.976;7.570;2023-12-07T08:05:15;3.00;99.90
19132;DHT22;9698;51.976;7.570;2023-12-07T08:07:42;3.00;99.90
19132;DHT22;9698;51.976;7.570;2023-12-07T08:10:11;3.10;99.90
19132;DHT22;9698;51.976;7.570;2023-12-07T08:12:40;3.20;99.90
19132;DHT22;9698;51.976;7.570;2023-12-07T08:15:10;3.20;99.90
19132;DHT22;9698;51.976;7.570;2023-12-07T08:17:39;2.90;99.90
19132;DHT22;9698;51.976;7.570;2023-12-07T08:20:09;3.30;99.90
19132;DHT22;9698;51.976;7.570;2023-12-07T08:22:38;3.30;99.90
19132;DHT22;9698;51.976;7.570;2023-12-07T08:25:08;3.20;99.90
19132;DHT22;9698;51.976;7.570;2023-12-07T08:27:39;3.30;99.90
19132;DHT22;9698;51.976;7.570;2023-12-07T08:30:08;3.30;99.90
19132;DHT22;9698;51.976;7.570;2023-12-07T08:32:36;3.30;99.90
19132;DHT22;9698;51.976;7.570;2023-12-07T08:35:06;3.50;99.90
19132;DHT22;9698;51.976;7.570;2023-12-07T08:40:02;3.20;99.90
19132;DHT22;9698;51.976;7.570;2023-12-07T08:42:30;3.30;99.90
19132;DHT22;9698;51.976;7.570;2023-12-07T08:47:26;3.30;99.90
19132;DHT22;9698;51.976;7.570;2023-12-07T08:49:57;3.30;99.90
19132;DHT22;9698;51.976;7.570;2023-12-07T08:52:25;3.40;99.90
19132;DHT22;9698;51.976;7.570;2023-12-07T08:55:09;3.40;99.90
19132;DHT22;9698;51.976;7.570;2023-12-07T08:57:37;3.50;99.90
19132;DHT22;9698;51.976;7.570;2023-12-07T09:00:07;3.50;99.90
19132;DHT22;9698;51.976;7.570;2023-12-07T09:02:35;3.50;99.90
19132;DHT22;9698;51.976;7.570;2023-12-07T09:05:14;3.60;99.90
19132;DHT22;9698;51.976;7.570;2023-12-07T09:07:42;3.60;99.90
19132;DHT22;9698;51.976;7.570;2023-12-07T09:10:11;3.70;99.90
19132;DHT22;9698;51.976;7.570;2023-12-07T09:12:39;3.60;99.90
19132;DHT22;9698;51.976;7.570;2023-12-07T09:15:09;3.70;99.90
19132;DHT22;9698;51.976;7.570;2023-12-07T09:17:38;3.70;99.90
19132;DHT22;9698;51.976;7.570;2023-12-07T09:20:08;3.70;99.90
19132;DHT22;9698;51.976;7.570;2023-12-07T09:22:42;3.70;99.90
19132;DHT22;9698;51.976;7.570;2023-12-07T09:25:10;3.70;99.90
19132;DHT22;9698;51.976;7.570;2023-12-07T09:27:38;3.70;99.90
19132;DHT22;9698;51.976;7.570;2023-12-07T09:30:08;3.80;99.90
19132;DHT22;9698;51.976;7.570;2023-12-07T09:32:38;3.70;99.90
19132;DHT22;9698;51.976;7.570;2023-12-07T09:35:08;3.70;99.90
19132;DHT22;9698;51.976;7.570;2023-12-07T09:37:42;3.80;99.90
19132;DHT22;9698;51.976;7.570;2023-12-07T09:40:15;3.70;99.90
19132;DHT22;9698;51.976;7.570;2023-12-07T09:42:44;3.70;99.90
19132;DHT22;9698;51.976;7.570;2023-12-07T09:45:14;4.00;99.90
19132;DHT22;9698;51.976;7.570;2023-12-07T09:47:47;3.70;99.90
19132;DHT22;9698;51.976;7.570;2023-12-07T09:50:17;3.80;99.90
19132;DHT22;9698;51.976;7.570;2023-12-07T09:52:47;3.70;99.90
19132;DHT22;9698;51.976;7.570;2023-12-07T09:55:28;3.80;99.90
19132;DHT22;9698;51.976;7.570;2023-12-07T09:57:56;3.90;99.90
19132;DHT22;9698;51.976;7.570;2023-12-07T10:00:25;3.80;99.90
19132;DHT22;9698;51.976;7.570;2023-12-07T10:02:53;3.80;99.90
19132;DHT22;9698;51.976;7.570;2023-12-07T10:05:22;3.90;99.90
19132;DHT22;9698;51.976;7.570;2023-12-07T10:07:51;4.00;99.90
19132;DHT22;9698;51.976;7.570;2023-12-07T10:10:19;3.90;99.90
19132;DHT22;9698;51.976;7.570;2023-12-07T10:12:50;4.00;99.90
19132;DHT22;9698;51.976;7.570;2023-12-07T10:15:20;3.90;99.90
19132;DHT22;9698;51.976;7.570;2023-12-07T10:17:49;4.00;99.90
19132;DHT22;9698;51.976;7.570;2023-12-07T10:20:19;4.00;99.90
19132;DHT22;9698;51.976;7.570;2023-12-07T10:23:01;4.00;99.90
19132;DHT22;9698;51.976;7.570;2023-12-07T10:25:30;4.00;99.90
19132;DHT22;9698;51.976;7.570;2023-12-07T10:27:58;4.00;99.90
19132;DHT22;9698;51.976;7.570;2023-12-07T10:30:27;4.10;99.90
19132;DHT22;9698;51.976;7.570;2023-12-07T10:32:55;4.00;99.90
19132;DHT22;9698;51.976;7.570;2023-12-07T10:35:23;4.10;99.90
19132;DHT22;9698;51.976;7.570;2023-12-07T10:37:53;4.20;99.90
19132;DHT22;9698;51.976;7.570;2023-12-07T10:40:20;4.10;99.90
19132;DHT22;9698;51.976;7.570;2023-12-07T10:42:49;4.10;99.90
19132;DHT22;9698;51.976;7.570;2023-12-07T10:45:20;4.10;99.90
19132;DHT22;9698;51.976;7.570;2023-12-07T10:47:50;4.00;99.90
19132;DHT22;9698;51.976;7.570;2023-12-07T10:50:22;4.20;99.90
19132;DHT22;9698;51.976;7.570;2023-12-07T10:55:23;4.30;99.90
19132;DHT22;9698;51.976;7.570;2023-12-07T10:57:54;4.60;99.90
19132;DHT22;9698;51.976;7.570;2023-12-07T11:00:22;4.40;99.90
19132;DHT22;9698;51.976;7.570;2023-12-07T11:03:09;4.40;99.90
19132;DHT22;9698;51.976;7.570;2023-12-07T11:05:37;4.40;99.90
19132;DHT22;9698;51.976;7.570;2023-12-07T11:08:09;4.40;99.90
19132;DHT22;9698;51.976;7.570;2023-12-07T11:10:43;4.40;99.90
19132;DHT22;9698;51.976;7.570;2023-12-07T11:13:18;4.50;99.90
19132;DHT22;9698;51.976;7.570;2023-12-07T11:15:47;4.50;99.90
19132;DHT22;9698;51.976;7.570;2023-12-07T11:18:16;4.60;99.90
19132;DHT22;9698;51.976;7.570;2023-12-07T11:20:45;4.50;99.90
19132;DHT22;9698;51.976;7.570;2023-12-07T11:23:17;4.50;99.90
19132;DHT22;9698;51.976;7.570;2023-12-07T11:25:46;4.50;99.90
19132;DHT22;9698;51.976;7.570;2023-12-07T11:28:16;4.50;99.90
19132;DHT22;9698;51.976;7.570;2023-12-07T11:30:45;4.50;99.90
19132;DHT22;9698;51.976;7.570;2023-12-07T11:33:15;4.80;99.90
19132;DHT22;9698;51.976;7.570;2023-12-07T11:36:05;4.50;99.90
19132;DHT22;9698;51.976;7.570;2023-12-07T11:38:33;4.50;99.90
19132;DHT22;9698;51.976;7.570;2023-12-07T11:43:41;4.40;99.90
19132;DHT22;9698;51.976;7.570;2023-12-07T11:46:13;4.50;99.90
19132;DHT22;9698;51.976;7.570;2023-12-07T11:48:47;4.60;99.90
19132;DHT22;9698;51.976;7.570;2023-12-07T11:51:16;4.60;99.90
19132;DHT22;9698;51.976;7.570;2023-12-07T11:53:44;4.70;99.90
19132;DHT22;9698;51.976;7.570;2023-12-07T11:56:12;4.70;99.90
19132;DHT22;9698;51.976;7.570;2023-12-07T12:01:09;4.80;99.90
19132;DHT22;9698;51.976;7.570;2023-12-07T12:06:07;4.80;99.90
19132;DHT22;9698;51.976;7.570;2023-12-07T12:08:39;4.80;99.90
19132;DHT22;9698;51.976;7.570;2023-12-07T12:11:07;4.80;99.90
19132;DHT22;9698;51.976;7.570;2023-12-07T12:13:35;4.90;99.90
19132;DHT22;9698;51.976;7.570;2023-12-07T12:16:08;4.90;99.90
19132;DHT22;9698;51.976;7.570;2023-12-07T12:18:37;5.00;99.90
19132;DHT22;9698;51.976;7.570;2023-12-07T12:21:07;5.00;99.90
19132;DHT22;9698;51.976;7.570;2023-12-07T12:23:36;5.10;99.90
19132;DHT22;9698;51.976;7.570;2023-12-07T12:26:06;5.10;99.90
19132;DHT22;9698;51.976;7.570;2023-12-07T12:28:35;5.20;99.90
19132;DHT22;9698;51.976;7.570;2023-12-07T12:31:10;5.20;99.90
19132;DHT22;9698;51.976;7.570;2023-12-07T12:33:38;5.20;99.90
19132;DHT22;9698;51.976;7.570;2023-12-07T12:36:08;5.10;99.90
19132;DHT22;9698;51.976;7.570;2023-12-07T12:38:37;5.20;99.90
19132;DHT22;9698;51.976;7.570;2023-12-07T12:41:11;5.20;99.90
19132;DHT22;9698;51.976;7.570;2023-12-07T12:43:40;5.30;99.90
19132;DHT22;9698;51.976;7.570;2023-12-07T12:46:08;5.40;99.90
19132;DHT22;9698;51.976;7.570;2023-12-07T12:48:40;5.40;99.90
19132;DHT22;9698;51.976;7.570;2023-12-07T12:51:19;5.40;99.90
19132;DHT22;9698;51.976;7.570;2023-12-07T12:53:48;5.60;99.90
19132;DHT22;9698;51.976;7.570;2023-12-07T12:56:19;5.60;99.90
19132;DHT22;9698;51.976;7.570;2023-12-07T12:58:49;5.60;99.90
19132;DHT22;9698;51.976;7.570;2023-12-07T13:01:18;5.70;99.90
19132;DHT22;9698;51.976;7.570;2023-12-07T13:03:46;5.80;99.90
19132;DHT22;9698;51.976;7.570;2023-12-07T13:06:15;5.60;99.90
19132;DHT22;9698;51.976;7.570;2023-12-07T13:08:45;5.80;99.90
19132;DHT22;9698;51.976;7.570;2023-12-07T13:11:16;5.80;99.90
19132;DHT22;9698;51.976;7.570;2023-12-07T13:13:45;5.90;99.90
19132;DHT22;9698;51.976;7.570;2023-12-07T13:16:14;5.90;99.90
19132;DHT22;9698;51.976;7.570;2023-12-07T13:18:43;5.90;99.90
19132;DHT22;9698;51.976;7.570;2023-12-07T13:21:11;5.90;99.90
19132;DHT22;9698;51.976;7.570;2023-12-07T13:26:07;5.80;99.90
19132;DHT22;9698;51.976;7.570;2023-12-07T13:31:02;5.80;99.90
19132;DHT22;9698;51.976;7.570;2023-12-07T13:33:30;5.70;99.90
19132;DHT22;9698;51.976;7.570;2023-12-07T13:36:10;5.70;99.90
19132;DHT22;9698;51.976;7.570;2023-12-07T13:38:39;5.80;99.90
19132;DHT22;9698;51.976;7.570;2023-12-07T13:41:07;5.90;99.90
19132;DHT22;9698;51.976;7.570;2023-12-07T13:50:58;5.80;99.90
19132;DHT22;9698;51.976;7.570;2023-12-07T13:55:53;5.70;99.90
19132;DHT22;9698;51.976;7.570;2023-12-07T13:58:21;5.70;99.90
19132;DHT22;9698;51.976;7.570;2023-12-07T14:00:49;5.50;99.90
19132;DHT22;9698;51.976;7.570;2023-12-07T14:03:17;5.50;99.90
19132;DHT22;9698;51.976;7.570;2023-12-07T14:08:14;5.80;99.90
19132;DHT22;9698;51.976;7.570;2023-12-07T14:10:41;5.40;99.90
19132;DHT22;9698;51.976;7.570;2023-12-07T14:18:12;5.30;99.90
19132;DHT22;9698;51.976;7.570;2023-12-07T14:20:42;5.20;99.90
19132;DHT22;9698;51.976;7.570;2023-12-07T14:26:05;5.30;99.90
19132;DHT22;9698;51.976;7.570;2023-12-07T14:28:34;5.20;99.90
19132;DHT22;9698;51.976;7.570;2023-12-07T14:31:04;5.10;99.90
19132;DHT22;9698;51.976;7.570;2023-12-07T14:33:33;5.10;99.90
19132;DHT22;9698;51.976;7.570;2023-12-07T14:36:03;5.00;99.90
19132;DHT22;9698;51.976;7.570;2023-12-07T14:40:59;5.00;99.90
19132;DHT22;9698;51.976;7.570;2023-12-07T14:43:27;5.00;99.90
19132;DHT22;9698;51.976;7.570;2023-12-07T14:45:55;4.90;99.90
19132;DHT22;9698;51.976;7.570;2023-12-07T14:50:51;4.90;99.90
19132;DHT22;9698;51.976;7.570;2023-12-07T14:53:19;4.70;99.90
19132;DHT22;9698;51.976;7.570;2023-12-07T14:55:51;4.80;99.90
19132;DHT22;9698;51.976;7.570;2023-12-07T14:58:19;4.80;99.90
19132;DHT22;9698;51.976;7.570;2023-12-07T15:00:47;4.60;99.90
19132;DHT22;9698;51.976;7.570;2023-12-07T15:03:15;4.90;99.90
19132;DHT22;9698;51.976;7.570;2023-12-07T15:05:45;4.60;99.90
19132;DHT22;9698;51.976;7.570;2023-12-07T15:08:13;4.60;99.90
19132;DHT22;9698;51.976;7.570;2023-12-07T15:13:08;4.80;99.90
19132;DHT22;9698;51.976;7.570;2023-12-07T15:15:37;4.50;99.90
19132;DHT22;9698;51.976;7.570;2023-12-07T15:18:05;4.50;99.90
19132;DHT22;9698;51.976;7.570;2023-12-07T15:23:01;4.40;99.90
19132;DHT22;9698;51.976;7.570;2023-12-07T15:25:30;4.50;99.90
19132;DHT22;9698;51.976;7.570;2023-12-07T15:27:58;4.40;99.90
19132;DHT22;9698;51.976;7.570;2023-12-07T15:30:26;4.40;99.90
19132;DHT22;9698;51.976;7.570;2023-12-07T15:32:56;4.40;99.90
19132;DHT22;9698;51.976;7.570;2023-12-07T15:35:24;4.40;99.90
19132;DHT22;9698;51.976;7.570;2023-12-07T15:37:52;4.40;99.90
19132;DHT22;9698;51.976;7.570;2023-12-07T15:45:16;4.30;99.90
19132;DHT22;9698;51.976;7.570;2023-12-07T15:50:12;4.20;99.90
19132;DHT22;9698;51.976;7.570;2023-12-07T15:52:39;4.20;99.90
19132;DHT22;9698;51.976;7.570;2023-12-07T15:55:09;4.30;99.90
19132;DHT22;9698;51.976;7.570;2023-12-07T15:57:37;4.30;99.90
19132;DHT22;9698;51.976;7.570;2023-12-07T16:00:08;4.20;99.90
19132;DHT22;9698;51.976;7.570;2023-12-07T16:02:37;4.10;99.90
19132;DHT22;9698;51.976;7.570;2023-12-07T16:05:06;4.30;99.90
19132;DHT22;9698;51.976;7.570;2023-12-07T16:07:35;4.10;99.90
19132;DHT22;9698;51.976;7.570;2023-12-07T16:10:08;4.00;99.90
19132;DHT22;9698;51.976;7.570;2023-12-07T16:12:36;4.10;99.90
19132;DHT22;9698;51.976;7.570;2023-12-07T16:17:39;4.20;99.90
19132;DHT22;9698;51.976;7.570;2023-12-07T16:20:09;4.00;99.90
19132;DHT22;9698;51.976;7.570;2023-12-07T16:22:42;4.00;99.90
19132;DHT22;9698;51.976;7.570;2023-12-07T16:25:10;3.90;99.90
19132;DHT22;9698;51.976;7.570;2023-12-07T16:27:38;4.10;99.90
19132;DHT22;9698;51.976;7.570;2023-12-07T16:30:08;4.40;99.90
19132;DHT22;9698;51.976;7.570;2023-12-07T16:32:42;4.10;99.90
19132;DHT22;9698;51.976;7.570;2023-12-07T16:35:12;4.00;99.90
19132;DHT22;9698;51.976;7.570;2023-12-07T16:37:40;4.00;99.90
19132;DHT22;9698;51.976;7.570;2023-12-07T16:40:09;4.00;99.90
19132;DHT22;9698;51.976;7.570;2023-12-07T16:42:38;4.00;99.90
19132;DHT22;9698;51.976;7.570;2023-12-07T16:45:09;4.10;99.90
19132;DHT22;9698;51.976;7.570;2023-12-07T16:47:37;4.00;99.90
19132;DHT22;9698;51.976;7.570;2023-12-07T16:50:07;3.90;99.90
19132;DHT22;9698;51.976;7.570;2023-12-07T16:52:36;4.10;99.90
19132;DHT22;9698;51.976;7.570;2023-12-07T16:55:15;3.90;99.90
19132;DHT22;9698;51.976;7.570;2023-12-07T16:57:43;4.80;99.90
19132;DHT22;9698;51.976;7.570;2023-12-07T17:00:14;4.70;99.90
19132;DHT22;9698;51.976;7.570;2023-12-07T17:02:41;4.50;99.90
19132;DHT22;9698;51.976;7.570;2023-12-07T17:05:11;4.20;99.90
19132;DHT22;9698;51.976;7.570;2023-12-07T17:07:39;4.20;99.90
19132;DHT22;9698;51.976;7.570;2023-12-07T17:10:08;4.10;99.90
19132;DHT22;9698;51.976;7.570;2023-12-07T17:12:38;4.20;99.90
19132;DHT22;9698;51.976;7.570;2023-12-07T17:15:08;4.20;99.90
19132;DHT22;9698;51.976;7.570;2023-12-07T17:17:36;4.20;99.90
19132;DHT22;9698;51.976;7.570;2023-12-07T17:20:07;3.90;99.90
19132;DHT22;9698;51.976;7.570;2023-12-07T17:22:36;3.90;99.90
19132;DHT22;9698;51.976;7.570;2023-12-07T17:25:05;4.00;99.90
19132;DHT22;9698;51.976;7.570;2023-12-07T17:27:33;4.00;99.90
19132;DHT22;9698;51.976;7.570;2023-12-07T17:30:01;4.00;99.90
19132;DHT22;9698;51.976;7.570;2023-12-07T17:32:30;3.70;99.90
19132;DHT22;9698;51.976;7.570;2023-12-07T17:34:58;4.00;99.90
19132;DHT22;9698;51.976;7.570;2023-12-07T17:39:56;4.00;99.90